createdAt,value
2018-04-23T00:00:17.701Z,17.67
2018-04-23T00:00:49.350Z,16.87
2018-04-23T00:01:20.993Z,17.42
2018-04-23T00:01:52.655Z,17.87
2018-04-23T00:02:24.294Z,18.17
2018-04-23T00:02:55.937Z,17.85
2018-04-23T00:03:27.557Z,17.73
2018-04-23T00:03:59.263Z,18.48
2018-04-23T00:04:30.885Z,17.83
2018-04-23T00:05:02.577Z,17.45
2018-04-23T00:05:34.217Z,18.65
2018-04-23T00:06:05.839Z,18.00
2018-04-23T00:06:37.498Z,17.52
2018-04-23T00:07:09.113Z,18.67
2018-04-23T00:07:40.766Z,18.58
2018-04-23T00:08:12.399Z,17.92
2018-04-23T00:08:44.008Z,18.17
2018-04-23T00:09:15.643Z,18.62
2018-04-23T00:09:47.286Z,18.55
2018-04-23T00:10:18.925Z,17.48
2018-04-23T00:10:50.540Z,19.00
2018-04-23T00:11:22.190Z,19.45
2018-04-23T00:11:53.845Z,18.58
2018-04-23T00:12:25.479Z,19.05
2018-04-23T00:12:57.148Z,19.20
2018-04-23T00:13:28.789Z,18.98
2018-04-23T00:14:00.393Z,19.05
2018-04-23T00:14:32.335Z,17.62
2018-04-23T00:15:03.965Z,17.98
2018-04-23T00:15:35.618Z,17.95
2018-04-23T00:16:07.249Z,18.17
2018-04-23T00:16:38.907Z,19.00
2018-04-23T00:17:10.538Z,19.37
2018-04-23T00:17:42.194Z,18.70
2018-04-23T00:18:13.832Z,19.12
2018-04-23T00:18:45.479Z,18.83
2018-04-23T00:19:17.126Z,18.62
2018-04-23T00:19:48.737Z,18.90
2018-04-23T00:20:20.376Z,19.80
2018-04-23T00:20:51.991Z,18.73
2018-04-23T00:21:23.624Z,19.20
2018-04-23T00:21:55.267Z,18.83
2018-04-23T00:22:26.910Z,18.62
2018-04-23T00:22:58.545Z,19.23
2018-04-23T00:23:30.183Z,18.00
2018-04-23T00:24:01.842Z,18.15
2018-04-23T00:24:33.451Z,18.35
2018-04-23T00:25:05.072Z,18.37
2018-04-23T00:25:36.742Z,18.62
2018-04-23T00:26:08.393Z,18.85
2018-04-23T00:26:40.054Z,17.62
2018-04-23T00:27:11.664Z,17.60
2018-04-23T00:27:43.333Z,19.35
2018-04-23T00:28:14.965Z,18.50
2018-04-23T00:28:47.016Z,18.17
2018-04-23T00:29:18.660Z,18.85
2018-04-23T00:29:50.284Z,18.20
2018-04-23T00:30:21.900Z,18.12
2018-04-23T00:30:53.527Z,18.77
2018-04-23T00:31:25.143Z,18.20
2018-04-23T00:31:56.783Z,17.50
2018-04-23T00:32:28.431Z,19.62
2018-04-23T00:33:00.067Z,18.85
2018-04-23T00:33:31.721Z,18.15
2018-04-23T00:34:03.371Z,18.33
2018-04-23T00:34:35.013Z,19.55
2018-04-23T00:35:06.653Z,19.40
2018-04-23T00:35:38.283Z,18.42
2018-04-23T00:36:09.913Z,18.33
2018-04-23T00:36:41.533Z,18.60
2018-04-23T00:37:13.159Z,17.77
2018-04-23T00:37:44.773Z,19.10
2018-04-23T00:38:16.398Z,19.73
2018-04-23T00:38:48.042Z,17.50
2018-04-23T00:39:19.681Z,19.00
2018-04-23T00:39:51.276Z,18.33
2018-04-23T00:40:22.913Z,18.73
2018-04-23T00:40:54.550Z,18.17
2018-04-23T00:41:26.197Z,18.80
2018-04-23T00:41:57.843Z,18.10
2018-04-23T00:42:29.464Z,18.77
2018-04-23T00:43:01.094Z,17.65
2018-04-23T00:43:32.731Z,18.92
2018-04-23T00:44:04.379Z,19.58
2018-04-23T00:44:36.026Z,18.97
2018-04-23T00:45:07.669Z,19.17
2018-04-23T00:45:39.280Z,18.48
2018-04-23T00:46:10.922Z,18.67
2018-04-23T00:46:42.553Z,17.87
2018-04-23T00:47:14.177Z,18.87
2018-04-23T00:47:45.800Z,18.23
2018-04-23T00:48:17.429Z,18.52
2018-04-23T00:48:49.074Z,18.42
2018-04-23T00:49:20.741Z,18.08
2018-04-23T00:49:52.427Z,18.77
2018-04-23T00:50:24.079Z,18.80
2018-04-23T00:50:55.714Z,18.62
2018-04-23T00:51:27.365Z,18.05
2018-04-23T00:51:59.031Z,20.48
2018-04-23T00:52:30.680Z,19.17
2018-04-23T00:53:20.949Z,18.75
2018-04-23T00:53:52.539Z,19.10
2018-04-23T00:54:24.181Z,19.15
2018-04-23T00:54:55.842Z,19.23
2018-04-23T00:55:27.457Z,18.92
2018-04-23T00:55:59.095Z,19.45
2018-04-23T00:56:30.707Z,19.00
2018-04-23T00:57:02.325Z,18.52
2018-04-23T00:57:33.957Z,17.90
2018-04-23T00:58:05.601Z,19.00
2018-04-23T00:58:37.248Z,18.98
2018-04-23T00:59:08.934Z,17.83
2018-04-23T00:59:40.629Z,19.08
2018-04-23T01:00:12.285Z,19.83
2018-04-23T01:00:43.951Z,19.48
2018-04-23T01:01:15.581Z,18.58
2018-04-23T01:01:47.203Z,19.48
2018-04-23T01:02:18.856Z,19.92
2018-04-23T01:02:50.480Z,18.12
2018-04-23T01:03:22.105Z,18.65
2018-04-23T01:03:53.733Z,18.52
2018-04-23T01:04:25.360Z,17.90
2018-04-23T01:04:57.000Z,18.92
2018-04-23T01:05:28.657Z,18.45
2018-04-23T01:06:00.291Z,18.37
2018-04-23T01:06:31.912Z,19.70
2018-04-23T01:07:03.563Z,18.55
2018-04-23T01:07:35.183Z,18.10
2018-04-23T01:08:06.815Z,18.42
2018-04-23T01:08:38.445Z,18.80
2018-04-23T01:09:10.070Z,18.12
2018-04-23T01:09:41.716Z,19.08
2018-04-23T01:10:13.369Z,18.70
2018-04-23T01:10:45.024Z,18.35
2018-04-23T01:11:16.639Z,18.75
2018-04-23T01:11:48.264Z,18.52
2018-04-23T01:12:19.931Z,20.83
2018-04-23T01:12:51.587Z,18.60
2018-04-23T01:13:23.209Z,19.08
2018-04-23T01:13:54.811Z,18.83
2018-04-23T01:14:26.415Z,19.70
2018-04-23T01:14:58.069Z,18.55
2018-04-23T01:15:29.711Z,19.90
2018-04-23T01:16:01.377Z,18.58
2018-04-23T01:16:32.991Z,21.05
2018-04-23T01:17:04.641Z,19.50
2018-04-23T01:17:36.247Z,19.83
2018-04-23T01:18:07.885Z,19.15
2018-04-23T01:18:39.523Z,18.77
2018-04-23T01:19:11.154Z,19.83
2018-04-23T01:19:42.882Z,19.70
2018-04-23T01:20:14.511Z,19.27
2018-04-23T01:20:46.128Z,19.10
2018-04-23T01:21:17.763Z,18.70
2018-04-23T01:21:49.397Z,19.98
2018-04-23T01:22:21.040Z,19.60
2018-04-23T01:22:52.680Z,18.58
2018-04-23T01:23:24.316Z,20.35
2018-04-23T01:23:55.931Z,21.08
2018-04-23T01:24:27.555Z,19.70
2018-04-23T01:24:59.191Z,19.45
2018-04-23T01:25:30.808Z,19.25
2018-04-23T01:26:02.464Z,20.85
2018-04-23T01:26:34.080Z,19.45
2018-04-23T01:27:05.706Z,19.37
2018-04-23T01:27:37.318Z,18.62
2018-04-23T01:28:08.907Z,19.70
2018-04-23T01:28:40.551Z,19.52
2018-04-23T01:29:12.176Z,19.67
2018-04-23T01:29:43.788Z,19.83
2018-04-23T01:30:15.433Z,19.87
2018-04-23T01:30:47.039Z,19.62
2018-04-23T01:31:18.651Z,19.30
2018-04-23T01:31:50.295Z,19.45
2018-04-23T01:32:21.915Z,20.10
2018-04-23T01:32:53.555Z,18.75
2018-04-23T01:33:25.172Z,20.50
2018-04-23T01:33:56.799Z,19.80
2018-04-23T01:34:28.427Z,18.62
2018-04-23T01:35:00.045Z,19.42
2018-04-23T01:35:31.657Z,19.33
2018-04-23T01:36:03.300Z,17.95
2018-04-23T01:36:34.935Z,18.20
2018-04-23T01:37:06.565Z,18.83
2018-04-23T01:37:38.223Z,19.17
2018-04-23T01:38:09.868Z,18.25
2018-04-23T01:38:41.514Z,18.60
2018-04-23T01:39:13.123Z,17.65
2018-04-23T01:49:34.761Z,17.85
2018-04-23T01:50:06.401Z,16.90
2018-04-23T01:50:38.017Z,16.35
2018-04-23T01:51:09.645Z,16.70
2018-04-23T01:51:41.283Z,17.33
2018-04-23T01:52:13.724Z,16.62
2018-04-23T01:52:45.355Z,17.05
2018-04-23T01:53:16.992Z,16.48
2018-04-23T01:53:48.616Z,17.00
2018-04-23T01:54:20.243Z,15.88
2018-04-23T01:54:51.867Z,16.27
2018-04-23T01:55:24.239Z,16.27
2018-04-23T01:55:55.851Z,15.68
2018-04-23T01:56:27.481Z,16.20
2018-04-23T01:56:59.127Z,16.12
2018-04-23T01:57:30.740Z,15.38
2018-04-23T01:58:02.384Z,15.40
2018-04-23T01:58:33.995Z,16.50
2018-04-23T01:59:05.623Z,14.13
2018-04-23T01:59:37.255Z,14.55
2018-04-23T02:00:08.891Z,15.13
2018-04-23T02:00:40.507Z,15.98
2018-04-23T02:01:12.145Z,14.95
2018-04-23T02:01:43.780Z,14.10
2018-04-23T02:02:15.406Z,14.60
2018-04-23T02:02:47.095Z,14.63
2018-04-23T02:03:18.769Z,12.90
2018-04-23T02:03:50.397Z,14.25
2018-04-23T02:04:21.999Z,14.25
2018-04-23T02:04:53.632Z,14.48
2018-04-23T02:05:25.269Z,13.93
2018-04-23T02:05:56.879Z,14.00
2018-04-23T02:06:28.497Z,13.80
2018-04-23T02:07:00.135Z,13.50
2018-04-23T02:07:31.759Z,13.48
2018-04-23T02:08:03.406Z,12.93
2018-04-23T02:08:35.049Z,12.35
2018-04-23T02:09:06.675Z,12.10
2018-04-23T02:09:38.297Z,14.82
2018-04-23T02:10:09.935Z,12.77
2018-04-23T02:10:41.593Z,12.25
2018-04-23T02:11:13.232Z,13.02
2018-04-23T02:11:44.841Z,11.65
2018-04-23T02:12:16.449Z,11.60
2018-04-23T02:12:48.089Z,12.68
2018-04-23T02:13:19.727Z,12.68
2018-04-23T02:13:51.375Z,12.48
2018-04-23T02:14:23.003Z,12.85
2018-04-23T02:14:54.631Z,12.60
2018-04-23T02:15:26.245Z,12.15
2018-04-23T02:15:57.859Z,11.77
2018-04-23T02:16:29.493Z,12.15
2018-04-23T02:17:01.110Z,12.48
2018-04-23T02:17:32.729Z,12.30
2018-04-23T02:18:04.357Z,11.23
2018-04-23T02:18:35.958Z,12.27
2018-04-23T02:19:07.575Z,11.45
2018-04-23T02:19:39.205Z,11.32
2018-04-23T02:20:10.817Z,11.40
2018-04-23T02:20:42.443Z,11.12
2018-04-23T02:21:14.091Z,10.90
2018-04-23T02:21:45.727Z,10.82
2018-04-23T02:22:17.338Z,11.48
2018-04-23T02:22:48.962Z,11.50
2018-04-23T02:23:20.604Z,11.55
2018-04-23T02:23:52.247Z,11.73
2018-04-23T02:24:23.871Z,10.80
2018-04-23T02:24:55.501Z,10.93
2018-04-23T02:25:27.136Z,10.23
2018-04-23T02:25:58.813Z,10.15
2018-04-23T02:26:30.451Z,10.23
2018-04-23T02:27:02.077Z,11.05
2018-04-23T02:27:33.707Z,10.88
2018-04-23T02:28:05.355Z,9.90
2018-04-23T02:28:37.017Z,10.90
2018-04-23T02:29:08.647Z,10.63
2018-04-23T02:29:40.279Z,10.63
2018-04-23T02:30:11.884Z,10.80
2018-04-23T02:30:43.514Z,10.57
2018-04-23T02:31:15.123Z,10.73
2018-04-23T02:31:46.799Z,10.20
2018-04-23T02:32:18.413Z,10.07
2018-04-23T02:32:50.024Z,10.43
2018-04-23T02:33:21.635Z,10.02
2018-04-23T02:33:53.299Z,9.75
2018-04-23T02:34:24.926Z,10.38
2018-04-23T02:34:56.570Z,10.02
2018-04-23T02:35:28.201Z,11.12
2018-04-23T02:35:59.837Z,9.75
2018-04-23T02:36:31.469Z,9.80
2018-04-23T02:37:03.111Z,9.40
2018-04-23T02:37:34.742Z,9.98
2018-04-23T02:38:06.393Z,10.20
2018-04-23T02:38:38.031Z,9.25
2018-04-23T02:39:09.679Z,9.88
2018-04-23T02:39:41.327Z,9.43
2018-04-23T02:40:12.964Z,10.18
2018-04-23T02:40:44.603Z,10.00
2018-04-23T02:41:16.267Z,10.30
2018-04-23T02:41:47.890Z,9.93
2018-04-23T02:42:19.515Z,10.00
2018-04-23T02:42:51.157Z,10.00
2018-04-23T02:43:22.781Z,10.50
2018-04-23T02:43:54.406Z,10.18
2018-04-23T02:44:26.021Z,11.02
2018-04-23T02:44:57.665Z,11.18
2018-04-23T02:45:29.293Z,10.95
2018-04-23T02:46:00.923Z,10.25
2018-04-23T02:46:32.526Z,10.32
2018-04-23T02:47:04.155Z,10.57
2018-04-23T02:47:35.772Z,10.98
2018-04-23T02:48:07.415Z,11.15
2018-04-23T02:48:39.407Z,11.50
2018-04-23T02:49:11.017Z,10.95
2018-04-23T02:49:42.655Z,10.98
2018-04-23T02:50:14.272Z,10.52
2018-04-23T02:50:45.928Z,11.00
2018-04-23T02:51:17.554Z,10.48
2018-04-23T02:51:49.185Z,11.38
2018-04-23T02:52:20.814Z,11.48
2018-04-23T02:52:52.455Z,10.55
2018-04-23T02:53:24.096Z,11.27
2018-04-23T02:53:55.770Z,11.07
2018-04-23T02:54:27.383Z,11.27
2018-04-23T02:54:59.015Z,10.85
2018-04-23T02:55:30.645Z,10.32
2018-04-23T02:56:02.291Z,10.32
2018-04-23T02:56:33.905Z,11.12
2018-04-23T02:57:05.535Z,12.05
2018-04-23T02:57:37.177Z,11.07
2018-04-23T02:58:08.809Z,10.90
2018-04-23T02:58:40.446Z,12.18
2018-04-23T02:59:12.096Z,11.65
2018-04-23T02:59:43.739Z,11.18
2018-04-23T03:00:15.363Z,10.65
2018-04-23T03:00:46.988Z,11.38
2018-04-23T03:01:18.606Z,11.93
2018-04-23T03:01:50.247Z,11.40
2018-04-23T03:02:21.856Z,11.40
2018-04-23T03:02:53.492Z,10.98
2018-04-23T03:03:25.127Z,11.27
2018-04-23T03:03:56.805Z,12.13
2018-04-23T03:04:28.435Z,12.05
2018-04-23T03:05:00.070Z,11.40
2018-04-23T03:05:31.704Z,11.50
2018-04-23T03:06:03.367Z,11.52
2018-04-23T03:06:34.987Z,12.55
2018-04-23T03:07:06.613Z,12.93
2018-04-23T03:07:38.255Z,13.05
2018-04-23T03:08:09.861Z,12.55
2018-04-23T03:08:41.492Z,12.63
2018-04-23T03:09:13.103Z,12.65
2018-04-23T03:09:44.723Z,12.65
2018-04-23T03:10:16.347Z,12.68
2018-04-23T03:10:47.983Z,12.40
2018-04-23T03:11:19.615Z,12.93
2018-04-23T03:11:51.234Z,14.07
2018-04-23T03:12:22.867Z,14.00
2018-04-23T03:12:54.501Z,13.23
2018-04-23T03:13:26.123Z,14.40
2018-04-23T03:13:57.801Z,13.95
2018-04-23T03:14:29.405Z,13.80
2018-04-23T03:15:01.031Z,15.30
2018-04-23T03:15:32.672Z,15.13
2018-04-23T03:16:04.333Z,14.60
2018-04-23T03:16:35.988Z,14.50
2018-04-23T03:17:07.659Z,15.40
2018-04-23T03:17:39.299Z,13.70
2018-04-23T03:18:10.913Z,15.25
2018-04-23T03:18:42.577Z,15.35
2018-04-23T03:19:15.182Z,14.98
2018-04-23T03:19:46.831Z,15.07
2018-04-23T03:20:18.457Z,15.45
2018-04-23T03:20:50.090Z,15.80
2018-04-23T03:21:21.725Z,14.90
2018-04-23T03:21:53.354Z,15.88
2018-04-23T03:22:24.979Z,15.80
2018-04-23T03:22:56.609Z,16.35
2018-04-23T03:23:28.245Z,16.35
2018-04-23T03:23:59.871Z,15.77
2018-04-23T03:24:31.498Z,16.50
2018-04-23T03:25:03.199Z,16.65
2018-04-23T03:25:34.813Z,16.27
2018-04-23T03:26:06.443Z,17.12
2018-04-23T03:26:38.074Z,16.45
2018-04-23T03:27:09.691Z,17.35
2018-04-23T03:27:41.327Z,16.50
2018-04-23T03:28:12.943Z,18.05
2018-04-23T03:28:44.576Z,17.55
2018-04-23T03:29:16.207Z,16.90
2018-04-23T03:29:47.863Z,16.40
2018-04-23T03:30:19.501Z,17.25
2018-04-23T03:30:51.135Z,17.45
2018-04-23T03:31:22.783Z,18.23
2018-04-23T03:31:54.408Z,16.15
2018-04-23T03:32:26.060Z,17.45
2018-04-23T03:32:57.669Z,19.60
2018-04-23T03:33:29.293Z,18.00
2018-04-23T03:34:00.921Z,18.02
2018-04-23T03:34:32.536Z,17.30
2018-04-23T03:35:04.173Z,17.75
2018-04-23T03:35:35.785Z,18.30
2018-04-23T03:36:07.427Z,18.27
2018-04-23T03:36:39.056Z,18.85
2018-04-23T03:37:10.730Z,18.05
2018-04-23T03:37:42.323Z,18.70
2018-04-23T03:38:13.925Z,18.02
2018-04-23T03:38:45.540Z,17.25
2018-04-23T03:39:17.169Z,17.33
2018-04-23T03:39:48.794Z,17.58
2018-04-23T03:40:20.433Z,18.77
2018-04-23T03:40:52.047Z,19.50
2018-04-23T03:41:23.694Z,17.92
2018-04-23T03:41:55.339Z,17.85
2018-04-23T03:42:26.996Z,18.02
2018-04-23T03:42:58.607Z,17.87
2018-04-23T03:43:30.227Z,19.17
2018-04-23T03:44:01.866Z,19.58
2018-04-23T03:44:33.481Z,19.42
2018-04-23T03:45:05.185Z,19.05
2018-04-23T03:45:36.831Z,18.95
2018-04-23T03:46:08.458Z,19.33
2018-04-23T03:46:40.117Z,18.87
2018-04-23T03:47:11.737Z,18.37
2018-04-23T03:47:43.367Z,18.40
2018-04-23T03:48:14.992Z,19.75
2018-04-23T03:48:46.603Z,21.10
2018-04-23T03:49:18.216Z,18.85
2018-04-23T03:49:49.850Z,19.40
2018-04-23T03:50:21.497Z,19.08
2018-04-23T03:50:53.131Z,18.98
2018-04-23T03:51:24.763Z,19.95
2018-04-23T03:51:56.371Z,19.00
2018-04-23T03:52:27.975Z,20.92
2018-04-23T03:52:59.583Z,17.98
2018-04-23T03:53:31.211Z,20.10
2018-04-23T03:54:02.843Z,20.50
2018-04-23T03:54:34.473Z,19.23
2018-04-23T03:55:06.093Z,19.67
2018-04-23T03:55:37.703Z,19.35
2018-04-23T03:56:09.319Z,19.70
2018-04-23T03:56:40.925Z,20.83
2018-04-23T03:57:12.553Z,20.42
2018-04-23T03:57:44.195Z,20.37
2018-04-23T03:58:15.819Z,19.98
2018-04-23T03:58:47.451Z,20.88
2018-04-23T03:59:19.075Z,21.12
2018-04-23T03:59:50.685Z,21.80
2018-04-23T04:00:22.315Z,21.10
2018-04-23T04:00:53.939Z,20.80
2018-04-23T04:01:25.572Z,21.80
2018-04-23T04:01:57.204Z,21.27
2018-04-23T04:02:28.819Z,21.85
2018-04-23T04:03:00.452Z,20.60
2018-04-23T04:03:32.093Z,22.42
2018-04-23T04:04:03.771Z,21.55
2018-04-23T04:04:35.417Z,20.48
2018-04-23T04:05:07.727Z,20.95
2018-04-23T04:05:39.355Z,20.77
2018-04-23T04:06:10.976Z,21.27
2018-04-23T04:06:42.609Z,22.27
2018-04-23T04:07:14.263Z,21.42
2018-04-23T04:07:45.937Z,21.12
2018-04-23T04:08:17.563Z,21.67
2018-04-23T04:08:49.203Z,22.77
2018-04-23T04:09:20.839Z,21.30
2018-04-23T04:09:52.492Z,22.00
2018-04-23T04:10:24.124Z,22.10
2018-04-23T04:10:55.741Z,21.67
2018-04-23T04:11:27.327Z,22.37
2018-04-23T04:12:17.465Z,23.45
2018-04-23T04:13:07.740Z,22.17
2018-04-23T04:13:57.741Z,22.23
2018-04-23T04:14:48.091Z,22.90
2018-04-23T04:15:39.015Z,23.35
2018-04-23T04:16:29.175Z,22.90
2018-04-23T04:17:00.797Z,21.98
2018-04-23T04:18:59.386Z,24.33
2018-04-23T04:19:31.029Z,23.08
2018-04-23T04:20:02.970Z,23.23
2018-04-23T04:20:34.591Z,22.92
2018-04-23T04:21:06.202Z,23.20
2018-04-23T04:21:37.825Z,24.12
2018-04-23T04:22:09.447Z,23.17
2018-04-23T04:22:41.081Z,23.73
2018-04-23T04:23:12.723Z,23.52
2018-04-23T04:23:44.337Z,22.35
2018-04-23T04:24:15.952Z,22.62
2018-04-23T04:24:47.589Z,22.52
2018-04-23T04:25:19.279Z,23.83
2018-04-23T04:25:50.907Z,21.75
2018-04-23T04:26:22.520Z,22.87
2018-04-23T04:26:54.129Z,23.08
2018-04-23T04:27:25.759Z,22.75
2018-04-23T04:27:57.389Z,24.27
2018-04-23T04:28:29.041Z,21.20
2018-04-23T04:29:00.689Z,22.60
2018-04-23T04:29:32.309Z,21.37
2018-04-23T04:30:03.957Z,20.90
2018-04-23T04:30:35.593Z,22.33
2018-04-23T04:31:07.327Z,21.35
2018-04-23T04:31:38.949Z,21.62
2018-04-23T04:32:10.574Z,22.30
2018-04-23T04:32:42.219Z,21.65
2018-04-23T04:33:13.863Z,21.15
2018-04-23T04:33:45.497Z,20.95
2018-04-23T04:34:17.114Z,21.25
2018-04-23T04:34:48.729Z,21.73
2018-04-23T04:35:20.359Z,21.05
2018-04-23T04:35:51.971Z,20.92
2018-04-23T04:36:23.607Z,20.85
2018-04-23T04:36:55.241Z,21.42
2018-04-23T04:37:26.857Z,20.65
2018-04-23T04:37:58.489Z,20.62
2018-04-23T04:38:30.099Z,21.48
2018-04-23T04:39:01.726Z,21.92
2018-04-23T04:39:33.368Z,20.42
2018-04-23T04:40:04.973Z,20.60
2018-04-23T04:40:36.901Z,20.73
2018-04-23T04:41:08.537Z,21.12
2018-04-23T04:41:40.175Z,20.65
2018-04-23T04:42:11.809Z,20.40
2018-04-23T04:42:43.443Z,19.45
2018-04-23T04:43:15.116Z,18.77
2018-04-23T04:43:46.739Z,20.42
2018-04-23T04:44:18.356Z,20.00
2018-04-23T04:44:50.013Z,20.35
2018-04-23T04:45:21.670Z,20.30
2018-04-23T04:45:53.282Z,19.33
2018-04-23T04:46:24.923Z,19.77
2018-04-23T04:46:56.572Z,19.83
2018-04-23T04:47:28.220Z,19.80
2018-04-23T04:47:59.839Z,19.98
2018-04-23T04:48:31.463Z,20.17
2018-04-23T04:49:03.098Z,20.35
2018-04-23T04:49:34.727Z,20.50
2018-04-23T04:50:06.336Z,19.48
2018-04-23T04:50:37.943Z,18.77
2018-04-23T04:51:09.555Z,18.42
2018-04-23T04:51:41.192Z,19.77
2018-04-23T04:52:12.846Z,19.52
2018-04-23T04:52:44.464Z,19.33
2018-04-23T04:53:16.125Z,19.83
2018-04-23T04:53:47.757Z,19.15
2018-04-23T04:54:19.409Z,19.80
2018-04-23T04:54:51.046Z,19.48
2018-04-23T04:55:22.683Z,19.58
2018-04-23T04:55:54.307Z,19.67
2018-04-23T04:56:25.971Z,20.65
2018-04-23T04:56:57.623Z,20.10
2018-04-23T04:57:29.234Z,19.50
2018-04-23T04:58:00.855Z,18.83
2018-04-23T04:58:32.475Z,19.27
2018-04-23T04:59:04.117Z,19.23
2018-04-23T04:59:35.743Z,19.80
2018-04-23T05:00:07.395Z,18.17
2018-04-23T05:00:39.048Z,19.17
2018-04-23T05:01:10.681Z,18.60
2018-04-23T05:01:42.319Z,19.70
2018-04-23T05:02:14.807Z,18.42
2018-04-23T05:02:46.443Z,19.10
2018-04-23T05:03:18.069Z,18.85
2018-04-23T05:03:49.705Z,19.33
2018-04-23T05:04:21.312Z,18.50
2018-04-23T05:04:52.935Z,18.62
2018-04-23T05:05:24.551Z,18.48
2018-04-23T05:05:56.184Z,18.42
2018-04-23T05:06:27.789Z,18.08
2018-04-23T05:06:59.419Z,17.42
2018-04-23T05:07:31.027Z,18.30
2018-04-23T05:08:02.661Z,18.90
2018-04-23T05:08:34.285Z,17.83
2018-04-23T05:09:05.928Z,18.60
2018-04-23T05:09:37.563Z,17.73
2018-04-23T05:10:09.227Z,17.73
2018-04-23T05:10:40.860Z,17.77
2018-04-23T05:11:12.493Z,18.12
2018-04-23T05:11:44.131Z,16.87
2018-04-23T05:12:16.033Z,17.62
2018-04-23T05:12:47.643Z,16.60
2018-04-23T05:13:19.293Z,17.02
2018-04-23T05:13:50.914Z,16.35
2018-04-23T05:14:22.533Z,16.10
2018-04-23T05:14:54.159Z,16.48
2018-04-23T05:15:25.777Z,17.42
2018-04-23T05:15:57.447Z,16.12
2018-04-23T05:16:29.863Z,15.63
2018-04-23T05:17:01.477Z,15.95
2018-04-23T05:17:33.114Z,16.87
2018-04-23T05:18:04.776Z,15.73
2018-04-23T05:18:36.395Z,15.55
2018-04-23T05:19:08.019Z,15.55
2018-04-23T05:19:39.682Z,15.25
2018-04-23T05:20:11.311Z,14.73
2018-04-23T05:20:42.947Z,15.32
2018-04-23T05:21:14.635Z,14.35
2018-04-23T05:21:46.291Z,14.43
2018-04-23T05:22:17.943Z,13.75
2018-04-23T05:22:49.581Z,16.00
2018-04-23T05:23:21.223Z,14.52
2018-04-23T05:23:52.989Z,13.77
2018-04-23T05:24:24.579Z,13.75
2018-04-23T05:24:56.199Z,14.38
2018-04-23T05:25:27.833Z,14.73
2018-04-23T05:25:59.471Z,13.95
2018-04-23T05:26:31.081Z,13.30
2018-04-23T05:27:03.443Z,12.80
2018-04-23T05:27:35.070Z,12.63
2018-04-23T05:28:06.691Z,13.35
2018-04-23T05:28:38.321Z,13.60
2018-04-23T05:29:09.948Z,13.18
2018-04-23T05:29:41.575Z,13.40
2018-04-23T05:30:13.198Z,12.75
2018-04-23T05:30:44.828Z,12.50
2018-04-23T05:31:16.515Z,11.80
2018-04-23T05:31:48.151Z,12.75
2018-04-23T05:32:19.773Z,12.02
2018-04-23T05:32:51.402Z,12.57
2018-04-23T05:33:23.019Z,12.45
2018-04-23T05:33:54.645Z,12.18
2018-04-23T05:34:26.259Z,11.43
2018-04-23T05:34:57.911Z,11.90
2018-04-23T05:35:29.539Z,10.93
2018-04-23T05:36:01.149Z,10.18
2018-04-23T05:36:32.761Z,10.23
2018-04-23T05:37:04.405Z,11.35
2018-04-23T05:37:36.061Z,10.48
2018-04-23T05:38:07.680Z,10.77
2018-04-23T05:38:39.289Z,9.68
2018-04-23T05:39:10.920Z,10.05
2018-04-23T05:39:42.553Z,10.45
2018-04-23T05:40:14.172Z,10.10
2018-04-23T05:40:45.793Z,9.48
2018-04-23T05:41:17.432Z,9.25
2018-04-23T05:41:49.047Z,9.23
2018-04-23T05:42:20.675Z,9.40
2018-04-23T05:42:52.341Z,8.25
2018-04-23T05:43:23.961Z,9.50
2018-04-23T05:43:55.583Z,8.77
2018-04-23T05:44:27.212Z,8.23
2018-04-23T05:44:58.849Z,8.07
2018-04-23T05:45:30.531Z,7.97
2018-04-23T05:46:02.179Z,8.38
2018-04-23T05:46:33.811Z,8.50
2018-04-23T05:47:05.479Z,7.68
2018-04-23T05:47:37.132Z,9.00
2018-04-23T05:48:08.770Z,8.65
2018-04-23T05:48:40.419Z,7.85
2018-04-23T05:49:12.167Z,8.40
2018-04-23T05:49:43.805Z,8.32
2018-04-23T05:50:15.429Z,9.00
2018-04-23T05:50:47.044Z,8.40
2018-04-23T05:51:18.675Z,9.00
2018-04-23T05:51:50.304Z,8.40
2018-04-23T05:52:21.945Z,8.85
2018-04-23T05:52:53.885Z,8.65
2018-04-23T05:53:25.527Z,9.07
2018-04-23T05:53:57.159Z,9.82
2018-04-23T05:54:29.822Z,9.15
2018-04-23T05:55:01.454Z,9.57
2018-04-23T05:55:33.083Z,9.05
2018-04-23T05:56:04.711Z,8.93
2018-04-23T05:56:36.355Z,8.52
2018-04-23T05:57:07.958Z,8.85
2018-04-23T05:57:39.592Z,9.38
2018-04-23T05:58:11.225Z,8.88
2018-04-23T05:58:42.840Z,8.75
2018-04-23T05:59:14.467Z,9.15
2018-04-23T05:59:46.121Z,8.73
2018-04-23T06:00:17.759Z,8.85
2018-04-23T06:00:49.390Z,8.43
2018-04-23T06:01:21.010Z,8.90
2018-04-23T06:01:52.625Z,8.43
2018-04-23T06:02:24.268Z,9.27
2018-04-23T06:02:55.888Z,8.82
2018-04-23T06:03:27.552Z,9.02
2018-04-23T06:03:59.207Z,8.48
2018-04-23T06:04:30.828Z,8.43
2018-04-23T06:05:02.471Z,8.35
2018-04-23T06:05:34.104Z,7.78
2018-04-23T06:06:05.752Z,7.78
2018-04-23T06:06:37.380Z,8.32
2018-04-23T06:07:09.010Z,8.27
2018-04-23T06:07:40.630Z,7.40
2018-04-23T06:08:12.278Z,7.35
2018-04-23T06:08:43.971Z,7.50
2018-04-23T06:09:15.575Z,7.32
2018-04-23T06:09:47.218Z,7.90
2018-04-23T06:10:18.822Z,7.72
2018-04-23T06:10:50.443Z,7.75
2018-04-23T06:11:22.080Z,8.25
2018-04-23T06:11:53.732Z,7.53
2018-04-23T06:12:25.432Z,7.40
2018-04-23T06:12:57.054Z,7.00
2018-04-23T06:13:28.692Z,7.28
2018-04-23T06:14:00.317Z,7.22
2018-04-23T06:14:31.949Z,7.37
2018-04-23T06:15:03.622Z,6.78
2018-04-23T06:15:35.259Z,6.82
2018-04-23T06:16:06.904Z,6.75
2018-04-23T06:16:38.769Z,6.45
2018-04-23T06:17:10.419Z,6.75
2018-04-23T06:17:42.061Z,7.05
2018-04-23T06:18:13.680Z,6.28
2018-04-23T06:18:45.297Z,6.43
2018-04-23T06:19:16.949Z,6.32
2018-04-23T06:19:48.579Z,6.60
2018-04-23T06:20:20.213Z,6.12
2018-04-23T06:20:51.838Z,6.93
2018-04-23T06:21:23.440Z,6.82
2018-04-23T06:21:55.063Z,6.53
2018-04-23T06:22:26.701Z,6.57
2018-04-23T06:22:58.338Z,5.85
2018-04-23T06:23:29.963Z,6.53
2018-04-23T06:24:01.596Z,6.35
2018-04-23T06:24:33.251Z,6.20
2018-04-23T06:25:04.879Z,6.30
2018-04-23T06:25:36.537Z,6.57
2018-04-23T06:26:08.187Z,6.90
2018-04-23T06:26:39.829Z,5.68
2018-04-23T06:27:11.435Z,5.85
2018-04-23T06:27:43.059Z,6.53
2018-04-23T06:28:14.715Z,5.80
2018-04-23T06:28:46.323Z,5.28
2018-04-23T06:29:17.958Z,6.37
2018-04-23T06:29:49.591Z,5.60
2018-04-23T06:30:21.217Z,6.12
2018-04-23T06:30:52.905Z,4.72
2018-04-23T06:31:24.504Z,5.32
2018-04-23T06:31:56.130Z,5.65
2018-04-23T06:32:27.753Z,5.07
2018-04-23T06:32:59.369Z,5.60
2018-04-23T06:33:31.008Z,5.68
2018-04-23T06:34:02.631Z,5.30
2018-04-23T06:34:34.243Z,5.45
2018-04-23T06:35:05.883Z,5.18
2018-04-23T06:35:37.499Z,5.43
2018-04-23T06:36:09.108Z,5.12
2018-04-23T06:36:40.738Z,4.85
2018-04-23T06:37:12.367Z,4.50
2018-04-23T06:37:44.004Z,5.37
2018-04-23T06:38:15.629Z,4.82
2018-04-23T06:38:47.247Z,5.87
2018-04-23T06:39:18.890Z,5.45
2018-04-23T06:39:50.502Z,4.95
2018-04-23T06:40:22.177Z,5.05
2018-04-23T06:40:53.759Z,4.80
2018-04-23T06:41:25.380Z,4.70
2018-04-23T06:41:56.988Z,4.80
2018-04-23T06:42:28.583Z,4.87
2018-04-23T06:43:00.203Z,4.90
2018-04-23T06:43:31.811Z,4.90
2018-04-23T06:44:03.439Z,4.72
2018-04-23T06:44:35.100Z,5.10
2018-04-23T06:45:06.726Z,4.78
2018-04-23T06:45:38.397Z,4.75
2018-04-23T06:46:10.089Z,4.50
2018-04-23T06:46:41.673Z,4.95
2018-04-23T06:47:13.321Z,5.65
2018-04-23T06:47:44.941Z,4.72
2018-04-23T06:48:16.564Z,4.12
2018-04-23T06:48:48.177Z,3.87
2018-04-23T06:49:19.780Z,3.92
2018-04-23T06:49:51.392Z,4.20
2018-04-23T06:50:23.015Z,3.55
2018-04-23T06:50:54.627Z,4.12
2018-04-23T06:51:26.247Z,4.30
2018-04-23T06:51:57.861Z,3.97
2018-04-23T06:52:29.485Z,3.55
2018-04-23T06:53:01.105Z,3.53
2018-04-23T06:53:32.717Z,3.97
2018-04-23T06:54:04.336Z,3.72
2018-04-23T06:54:35.928Z,4.70
2018-04-23T06:55:07.546Z,3.80
2018-04-23T06:55:39.152Z,3.97
2018-04-23T06:56:10.795Z,4.00
2018-04-23T06:56:42.457Z,3.97
2018-04-23T06:57:14.067Z,3.90
2018-04-23T06:57:45.723Z,3.55
2018-04-23T06:58:17.337Z,4.18
2018-04-23T06:58:48.968Z,3.75
2018-04-23T06:59:20.631Z,3.40
2018-04-23T06:59:52.243Z,4.30
2018-04-23T07:00:23.883Z,3.83
2018-04-23T07:00:55.514Z,3.80
2018-04-23T07:01:27.152Z,3.85
2018-04-23T07:01:58.806Z,4.20
2018-04-23T07:02:30.462Z,3.53
2018-04-23T07:03:02.083Z,3.87
2018-04-23T07:03:33.718Z,3.47
2018-04-23T07:04:05.348Z,3.30